Time;durP1;ratioP1;P1;durP2;ratioP2;P2;SDS_P1;SDS_P2;PMS_P1;PMS_P2;Temp;Humidity;BMP_temperature;BMP_pressure;BME280_temperature;BME280_humidity;BME280_pressure;Samples;Min_cycle;Max_cycle;Signal;HPM_P1;HPM_P2
2023/07/29 00:01:42;;;;;;;13.75;10.10;;;18.60;99.90;;;;;;4967099;28;90269;-35
2023/07/29 00:04:09;;;;;;;11.75;9.95;;;18.50;99.90;;;;;;4963275;28;89430;-35
2023/07/29 00:06:35;;;;;;;9.88;8.70;;;18.40;99.90;;;;;;4962138;28;90165;-33
2023/07/29 00:09:02;;;;;;;10.02;8.95;;;18.30;99.90;;;;;;4961529;28;89149;-33
2023/07/29 00:11:28;;;;;;;11.70;9.43;;;18.40;99.90;;;;;;4962161;28;90065;-33
2023/07/29 00:13:54;;;;;;;10.18;9.13;;;18.40;99.90;;;;;;4962223;28;89256;-32
2023/07/29 00:16:22;;;;;;;10.93;9.57;;;18.40;99.90;;;;;;4974664;28;89627;-31
2023/07/29 00:18:48;;;;;;;11.93;8.88;;;18.40;99.90;;;;;;4961377;28;89962;-33
2023/07/29 00:21:14;;;;;;;10.73;9.15;;;18.40;99.90;;;;;;4960252;28;90009;-37
2023/07/29 00:23:39;;;;;;;12.10;9.90;;;18.40;99.90;;;;;;4962160;28;89795;-35
2023/07/29 00:26:05;;;;;;;11.13;9.32;;;18.40;99.90;;;;;;4960751;28;88235;-34
2023/07/29 00:28:31;;;;;;;11.25;10.07;;;18.40;99.90;;;;;;4957690;28;87574;-37
2023/07/29 00:30:57;;;;;;;13.70;10.52;;;18.40;99.90;;;;;;4960554;28;88925;-38
2023/07/29 00:33:22;;;;;;;13.48;11.85;;;18.30;99.90;;;;;;4951666;28;88679;-32
2023/07/29 00:35:48;;;;;;;11.38;10.18;;;18.30;99.90;;;;;;4963862;28;89647;-34
2023/07/29 00:38:14;;;;;;;16.63;11.98;;;18.30;99.90;;;;;;4952535;28;89180;-38
2023/07/29 00:40:39;;;;;;;18.45;13.80;;;18.10;99.90;;;;;;4955003;28;89819;-32
2023/07/29 00:43:05;;;;;;;16.90;13.45;;;18.10;99.90;;;;;;4956868;28;88603;-40
2023/07/29 00:45:32;;;;;;;16.00;13.60;;;18.10;99.90;;;;;;4954569;28;90059;-35
2023/07/29 00:47:59;;;;;;;19.02;14.32;;;18.10;99.90;;;;;;4952036;28;88324;-35
2023/07/29 00:50:27;;;;;;;17.40;14.10;;;18.10;99.90;;;;;;4959550;28;88894;-38
2023/07/29 00:52:54;;;;;;;16.70;14.65;;;18.10;99.90;;;;;;4951648;28;89803;-36
2023/07/29 00:55:19;;;;;;;15.07;13.55;;;18.10;99.90;;;;;;4954454;28;88017;-33
2023/07/29 00:57:48;;;;;;;17.90;13.77;;;18.10;99.90;;;;;;4955369;28;89681;-37
2023/07/29 01:00:15;;;;;;;14.05;12.57;;;18.00;99.90;;;;;;4955310;28;89857;-38
2023/07/29 01:02:42;;;;;;;18.50;13.80;;;18.00;99.90;;;;;;4950721;28;89840;-32
2023/07/29 01:05:11;;;;;;;16.52;13.63;;;18.00;99.90;;;;;;4975901;28;89183;-35
2023/07/29 01:07:51;;;;;;;19.63;14.00;;;18.00;99.90;;;;;;4971654;28;89846;-33
2023/07/29 01:10:46;;;;;;;17.30;14.20;;;18.00;99.90;;;;;;4973401;28;90491;-35
2023/07/29 01:13:31;;;;;;;18.00;13.57;;;18.00;99.90;;;;;;4959028;28;90306;-33
2023/07/29 01:16:04;;;;;;;20.27;15.30;;;17.90;99.90;;;;;;4970933;28;88765;-32
2023/07/29 01:18:32;;;;;;;18.38;13.82;;;17.90;99.90;;;;;;4972708;28;88614;-35
2023/07/29 01:21:04;;;;;;;14.48;13.00;;;17.90;99.90;;;;;;4973791;28;90721;-35
2023/07/29 01:23:34;;;;;;;13.63;12.23;;;17.90;99.90;;;;;;4971446;28;89380;-35
2023/07/29 01:26:00;;;;;;;16.80;12.80;;;17.90;99.90;;;;;;4975067;28;87782;-34
2023/07/29 01:28:27;;;;;;;19.27;15.00;;;17.80;99.90;;;;;;4971473;28;89955;-38
2023/07/29 01:31:01;;;;;;;15.40;13.20;;;17.80;99.90;;;;;;4976672;28;90380;-31
2023/07/29 01:33:35;;;;;;;15.88;13.63;;;17.80;99.90;;;;;;4972647;28;90090;-37
2023/07/29 01:36:13;;;;;;;20.73;14.23;;;17.80;99.90;;;;;;4977350;28;89058;-33
2023/07/29 01:38:40;;;;;;;;;;;17.80;99.90;;;;;;4974447;28;89816;-34
2023/07/29 01:41:08;;;;;;;25.30;14.40;;;17.80;99.90;;;;;;4966974;28;89649;-34
2023/07/29 01:43:39;;;;;;;14.32;11.50;;;17.70;99.90;;;;;;4974971;28;88543;-36
2023/07/29 01:46:05;;;;;;;13.68;10.95;;;17.70;99.90;;;;;;4973185;28;89519;-33
2023/07/29 01:48:31;;;;;;;14.00;11.95;;;17.70;99.90;;;;;;4975864;28;89428;-36
2023/07/29 01:50:57;;;;;;;15.90;12.77;;;17.70;99.90;;;;;;4973567;28;91179;-32
2023/07/29 01:53:23;;;;;;;24.40;12.70;;;17.70;99.90;;;;;;4975846;28;90786;-36
2023/07/29 01:55:49;;;;;;;16.02;12.70;;;17.60;99.90;;;;;;4973630;28;87527;-31
2023/07/29 01:58:15;;;;;;;16.05;11.52;;;17.70;99.90;;;;;;4975727;28;89305;-33
2023/07/29 02:00:40;;;;;;;15.18;13.52;;;17.70;99.90;;;;;;4976774;28;89887;-32
2023/07/29 02:03:06;;;;;;;15.75;12.05;;;17.60;99.90;;;;;;4960279;28;90094;-37
2023/07/29 02:05:32;;;;;;;17.17;12.02;;;17.60;99.90;;;;;;4957206;28;89421;-35
2023/07/29 02:07:57;;;;;;;13.98;12.32;;;17.60;99.90;;;;;;4960488;28;88672;-36
2023/07/29 02:10:23;;;;;;;16.20;11.95;;;17.60;99.90;;;;;;4957772;28;90494;-36
2023/07/29 02:12:48;;;;;;;13.38;11.60;;;17.60;99.90;;;;;;4959949;28;90351;-36
2023/07/29 02:15:14;;;;;;;14.40;11.70;;;17.50;99.90;;;;;;4958057;28;89672;-36
2023/07/29 02:17:42;;;;;;;15.50;11.23;;;17.50;99.90;;;;;;4960081;28;88061;-35
2023/07/29 02:20:08;;;;;;;14.38;12.00;;;17.50;99.90;;;;;;4958705;28;89171;-31
2023/07/29 02:22:34;;;;;;;13.15;11.75;;;17.50;99.90;;;;;;4959568;28;89637;-34
2023/07/29 02:25:00;;;;;;;12.70;11.27;;;17.50;99.90;;;;;;4959771;28;87516;-33
2023/07/29 02:27:27;;;;;;;13.10;11.55;;;17.50;99.90;;;;;;4959470;28;88233;-38
2023/07/29 02:29:53;;;;;;;11.50;10.40;;;17.50;99.90;;;;;;4959584;28;90014;-32
2023/07/29 02:32:19;;;;;;;13.20;11.85;;;17.50;99.90;;;;;;4959850;28;89922;-38
2023/07/29 02:34:45;;;;;;;12.90;11.48;;;17.50;99.90;;;;;;4959007;28;89456;-35
2023/07/29 02:37:10;;;;;;;13.15;11.43;;;17.50;99.90;;;;;;4945915;28;88762;-35
2023/07/29 02:39:37;;;;;;;20.73;11.75;;;17.50;99.90;;;;;;4959995;28;90437;-31
2023/07/29 02:42:03;;;;;;;13.55;11.55;;;17.50;99.90;;;;;;4953396;28;89541;-33
2023/07/29 02:44:28;;;;;;;12.50;10.25;;;17.50;99.90;;;;;;4965312;28;88990;-34
2023/07/29 02:46:55;;;;;;;11.40;10.05;;;17.50;99.90;;;;;;4959247;28;88813;-33
2023/07/29 02:49:22;;;;;;;13.07;10.88;;;17.50;99.90;;;;;;4957762;28;90304;-34
2023/07/29 02:51:47;;;;;;;12.57;9.50;;;17.50;99.90;;;;;;4940244;28;90330;-37
2023/07/29 02:54:13;;;;;;;11.48;10.27;;;17.50;99.90;;;;;;4941238;28;89885;-35
2023/07/29 02:56:39;;;;;;;11.38;9.18;;;17.50;99.90;;;;;;4940782;28;87700;-33
2023/07/29 02:59:04;;;;;;;12.65;11.27;;;17.40;99.90;;;;;;4941068;28;90228;-33
2023/07/29 03:01:30;;;;;;;11.88;10.15;;;17.40;99.90;;;;;;4949216;28;89911;-34
2023/07/29 03:03:56;;;;;;;10.98;9.63;;;17.40;99.90;;;;;;4957172;28;87548;-32
2023/07/29 03:06:22;;;;;;;12.48;11.20;;;17.40;99.90;;;;;;4966097;28;90107;-35
2023/07/29 03:08:47;;;;;;;9.75;8.82;;;17.40;99.90;;;;;;4957376;28;90286;-38
2023/07/29 03:11:15;;;;;;;10.98;9.30;;;17.30;99.90;;;;;;4965860;28;89484;-34
2023/07/29 03:13:40;;;;;;;10.00;9.00;;;17.30;99.90;;;;;;4960451;28;87992;-30
2023/07/29 03:16:15;;;;;;;11.32;8.30;;;17.30;99.90;;;;;;4960438;28;87713;-34
2023/07/29 03:18:42;;;;;;;11.48;8.35;;;17.30;99.90;;;;;;4959687;28;90280;-35
2023/07/29 03:21:08;;;;;;;10.20;9.30;;;17.30;99.90;;;;;;4956907;28;89031;-38
2023/07/29 03:23:34;;;;;;;12.15;8.63;;;17.30;99.90;;;;;;4955243;28;88754;-36
2023/07/29 03:26:04;;;;;;;8.90;7.65;;;17.30;99.90;;;;;;4959702;28;89745;-32
2023/07/29 03:28:32;;;;;;;10.15;7.70;;;17.30;99.90;;;;;;4956701;28;90004;-32
2023/07/29 03:30:58;;;;;;;9.70;7.82;;;17.20;99.90;;;;;;4968334;28;89794;-33
2023/07/29 03:33:25;;;;;;;10.52;8.73;;;17.20;99.90;;;;;;4964335;28;89434;-38
2023/07/29 03:35:53;;;;;;;10.15;7.97;;;17.20;99.90;;;;;;4944131;28;88547;-31
2023/07/29 03:38:19;;;;;;;;;;;17.20;99.90;;;;;;4944228;28;90329;-37
2023/07/29 03:40:45;;;;;;;8.00;7.20;;;17.20;99.90;;;;;;4945914;28;89949;-39
2023/07/29 03:43:10;;;;;;;11.38;7.07;;;17.10;99.90;;;;;;4944578;28;89496;-35
2023/07/29 03:45:37;;;;;;;10.63;8.95;;;17.10;99.90;;;;;;4943932;28;88072;-34
2023/07/29 03:48:03;;;;;;;7.28;6.50;;;17.10;99.90;;;;;;4943446;28;91401;-32
2023/07/29 03:50:29;;;;;;;8.02;7.22;;;17.10;99.90;;;;;;4943679;28;90413;-35
2023/07/29 03:52:56;;;;;;;10.02;7.63;;;17.10;99.90;;;;;;4948080;28;91361;-38
2023/07/29 03:55:22;;;;;;;9.25;7.20;;;17.10;99.90;;;;;;4952984;28;87680;-36
2023/07/29 03:57:48;;;;;;;7.22;6.40;;;17.10;99.90;;;;;;4945428;28;90266;-32
2023/07/29 04:00:13;;;;;;;6.50;5.90;;;17.00;99.90;;;;;;4943677;28;89451;-39
2023/07/29 04:02:40;;;;;;;6.72;6.03;;;17.00;99.90;;;;;;4950594;28;90224;-33
2023/07/29 04:05:08;;;;;;;7.18;5.78;;;17.00;99.90;;;;;;4946544;28;88219;-32
2023/07/29 04:07:34;;;;;;;7.38;6.35;;;16.90;99.90;;;;;;4946864;28;90087;-31
2023/07/29 04:10:01;;;;;;;6.72;6.10;;;16.90;99.90;;;;;;4945006;28;89841;-39
2023/07/29 04:12:26;;;;;;;6.22;5.20;;;16.90;99.90;;;;;;4950276;28;88383;-33
2023/07/29 04:14:52;;;;;;;5.38;4.68;;;16.90;99.90;;;;;;4954556;28;87693;-38
2023/07/29 04:17:18;;;;;;;6.70;5.05;;;16.90;99.90;;;;;;4946240;28;90435;-32
2023/07/29 04:19:43;;;;;;;6.15;5.50;;;16.90;99.90;;;;;;4944958;28;89684;-39
2023/07/29 04:22:09;;;;;;;5.32;4.53;;;16.90;99.90;;;;;;4948608;28;87729;-30
2023/07/29 04:24:34;;;;;;;5.60;4.47;;;16.90;99.90;;;;;;4944863;28;89304;-37
2023/07/29 04:27:00;;;;;;;5.68;4.60;;;16.90;99.90;;;;;;4948973;28;90289;-31
2023/07/29 04:29:26;;;;;;;6.25;3.92;;;16.90;99.90;;;;;;4954449;28;89001;-34
2023/07/29 04:31:52;;;;;;;5.72;4.28;;;16.90;99.90;;;;;;4959457;28;90395;-40
2023/07/29 04:34:20;;;;;;;6.43;4.70;;;16.90;99.90;;;;;;4943161;28;88749;-35
2023/07/29 04:36:47;;;;;;;8.40;4.70;;;17.00;99.90;;;;;;4948779;28;90353;-34
2023/07/29 04:39:13;;;;;;;7.65;4.63;;;16.90;99.90;;;;;;4961456;28;90603;-35
2023/07/29 04:41:38;;;;;;;6.00;4.50;;;17.00;99.90;;;;;;4959519;28;88734;-37
2023/07/29 04:44:04;;;;;;;4.30;3.90;;;17.00;99.90;;;;;;4961901;28;87569;-36
2023/07/29 04:46:30;;;;;;;7.20;4.85;;;17.00;99.90;;;;;;4945207;28;91374;-34
2023/07/29 04:48:56;;;;;;;4.45;4.03;;;17.00;99.90;;;;;;4943425;28;89630;-34
2023/07/29 04:51:21;;;;;;;5.53;4.45;;;17.00;99.90;;;;;;4942337;28;87556;-33
2023/07/29 04:53:47;;;;;;;6.30;4.95;;;17.10;99.90;;;;;;4944245;28;89438;-35
2023/07/29 04:56:13;;;;;;;7.22;4.90;;;17.00;99.90;;;;;;4942037;28;91034;-30
2023/07/29 04:58:38;;;;;;;5.57;4.63;;;17.10;99.90;;;;;;4943458;28;88520;-31
2023/07/29 05:01:04;;;;;;;6.35;4.38;;;17.10;99.90;;;;;;4955833;28;89684;-34
2023/07/29 05:03:30;;;;;;;8.85;5.10;;;17.10;99.90;;;;;;4967307;28;87723;-35
2023/07/29 05:05:57;;;;;;;4.85;4.35;;;17.00;99.90;;;;;;4943394;28;89667;-32
2023/07/29 05:08:24;;;;;;;5.33;4.53;;;17.10;99.90;;;;;;4942221;28;89197;-32
2023/07/29 05:10:50;;;;;;;9.18;4.47;;;17.10;99.90;;;;;;4943117;28;88734;-37
2023/07/29 05:13:16;;;;;;;5.60;4.25;;;17.10;99.90;;;;;;4944311;28;89888;-32
2023/07/29 05:15:41;;;;;;;4.43;4.03;;;17.00;99.90;;;;;;4953719;28;90323;-34
2023/07/29 05:18:07;;;;;;;5.47;4.20;;;17.10;99.90;;;;;;4962199;28;90475;-37
2023/07/29 05:20:33;;;;;;;6.05;4.70;;;17.10;99.90;;;;;;4957476;28;90489;-37
2023/07/29 05:22:58;;;;;;;4.95;4.38;;;17.10;99.90;;;;;;4954134;28;89624;-39
2023/07/29 05:25:24;;;;;;;5.88;4.20;;;17.10;99.90;;;;;;4957034;28;91117;-34
2023/07/29 05:27:49;;;;;;;4.82;4.20;;;17.10;99.90;;;;;;4956439;28;89747;-38
2023/07/29 05:30:15;;;;;;;5.10;3.63;;;17.10;99.90;;;;;;4956574;28;89994;-32
2023/07/29 05:32:41;;;;;;;3.72;3.42;;;17.10;99.90;;;;;;4946936;28;89016;-38
2023/07/29 05:35:07;;;;;;;4.65;4.03;;;17.10;99.90;;;;;;4947820;28;88750;-40
2023/07/29 05:37:32;;;;;;;3.80;3.05;;;17.20;99.90;;;;;;4946573;28;89854;-37
2023/07/29 05:39:58;;;;;;;5.28;3.72;;;17.10;99.90;;;;;;4955915;28;88737;-36
2023/07/29 05:42:24;;;;;;;4.28;3.88;;;17.10;99.90;;;;;;4951566;28;88991;-33
2023/07/29 05:44:50;;;;;;;6.88;3.55;;;17.20;99.90;;;;;;4955154;28;90507;-35
2023/07/29 05:47:15;;;;;;;3.75;3.45;;;17.20;99.90;;;;;;4964544;28;89757;-37
2023/07/29 05:49:41;;;;;;;5.03;3.53;;;17.20;99.90;;;;;;4957148;28;88415;-34
2023/07/29 05:52:07;;;;;;;4.63;3.25;;;17.30;99.90;;;;;;4957663;28;89852;-32
2023/07/29 05:54:33;;;;;;;3.60;3.20;;;17.20;99.90;;;;;;4955989;28;88646;-34
2023/07/29 05:56:58;;;;;;;4.47;3.58;;;17.30;99.90;;;;;;4959652;28;89910;-38
2023/07/29 05:59:24;;;;;;;4.70;4.18;;;17.30;99.90;;;;;;4954322;28;90269;-37
2023/07/29 06:01:49;;;;;;;7.07;4.85;;;17.30;99.90;;;;;;4971816;28;89728;-35
2023/07/29 06:04:15;;;;;;;4.63;3.78;;;17.40;99.90;;;;;;4958567;28;89480;-38
2023/07/29 06:06:41;;;;;;;7.32;4.75;;;17.40;99.90;;;;;;4957866;28;89744;-38
2023/07/29 06:09:06;;;;;;;6.75;4.47;;;17.40;99.90;;;;;;4957996;28;89213;-35
2023/07/29 06:11:32;;;;;;;6.47;4.88;;;17.40;99.90;;;;;;4958498;28;88849;-39
2023/07/29 06:13:57;;;;;;;11.00;5.43;;;17.50;99.90;;;;;;4958954;28;88944;-35
2023/07/29 06:16:23;;;;;;;5.68;4.60;;;17.50;99.90;;;;;;4958828;28;90322;-36
2023/07/29 06:18:49;;;;;;;9.85;6.32;;;17.50;99.90;;;;;;4958412;28;89520;-31
2023/07/29 06:21:17;;;;;;;7.55;5.82;;;17.50;99.90;;;;;;4945127;28;88464;-38
2023/07/29 06:23:46;;;;;;;10.02;5.80;;;17.50;99.90;;;;;;4946331;28;90152;-31
2023/07/29 06:26:12;;;;;;;7.85;5.55;;;17.60;99.90;;;;;;4958694;28;90312;-32
2023/07/29 06:28:37;;;;;;;6.80;5.10;;;17.60;99.90;;;;;;4957205;28;89647;-33
2023/07/29 06:31:03;;;;;;;10.13;5.75;;;17.60;99.90;;;;;;4958131;28;88325;-35
2023/07/29 06:33:29;;;;;;;9.10;6.20;;;17.60;99.90;;;;;;4951508;28;90398;-39
2023/07/29 06:35:54;;;;;;;7.13;5.93;;;17.70;99.90;;;;;;4958831;28;89724;-40
2023/07/29 06:38:21;;;;;;;8.75;6.15;;;17.80;99.90;;;;;;4950641;28;88910;-35
2023/07/29 06:40:48;;;;;;;8.55;5.20;;;17.90;99.90;;;;;;4953460;28;89393;-37
2023/07/29 06:43:14;;;;;;;8.32;5.53;;;17.90;99.90;;;;;;4952850;28;89579;-39
2023/07/29 06:45:39;;;;;;;7.93;5.35;;;18.00;99.90;;;;;;4953611;28;89301;-34
2023/07/29 06:48:05;;;;;;;9.45;6.05;;;18.00;99.90;;;;;;4952939;28;89756;-36
2023/07/29 06:50:31;;;;;;;7.00;4.65;;;18.10;99.90;;;;;;4951894;28;89804;-36
2023/07/29 06:52:56;;;;;;;11.80;5.70;;;18.10;99.90;;;;;;4954761;28;89834;-35
2023/07/29 06:55:22;;;;;;;11.30;6.95;;;18.20;99.90;;;;;;4950854;28;89763;-38
2023/07/29 06:57:48;;;;;;;9.10;5.03;;;18.20;99.90;;;;;;4953667;28;88916;-36
2023/07/29 07:00:14;;;;;;;8.52;6.18;;;18.10;99.90;;;;;;4950661;28;88416;-36
2023/07/29 07:02:39;;;;;;;9.45;6.63;;;18.30;99.90;;;;;;4955113;28;91532;-32
2023/07/29 07:05:05;;;;;;;10.07;5.78;;;18.40;99.90;;;;;;4942991;28;89686;-32
2023/07/29 07:07:31;;;;;;;8.93;6.38;;;18.50;99.90;;;;;;4947724;28;87961;-36
2023/07/29 07:09:56;;;;;;;7.72;5.53;;;18.50;99.90;;;;;;4942970;28;88747;-35
2023/07/29 07:12:22;;;;;;;11.40;5.97;;;18.60;99.90;;;;;;4948527;28;91064;-32
2023/07/29 07:14:48;;;;;;;16.35;6.65;;;18.60;99.90;;;;;;4943876;28;89736;-33
2023/07/29 07:17:14;;;;;;;9.23;7.18;;;18.60;99.90;;;;;;4949875;28;88735;-39
2023/07/29 07:19:40;;;;;;;7.43;5.47;;;18.70;99.90;;;;;;4950908;28;89759;-32
2023/07/29 07:22:05;;;;;;;10.20;7.70;;;18.80;99.90;;;;;;4948864;28;90180;-34
2023/07/29 07:24:31;;;;;;;8.00;7.13;;;18.90;99.90;;;;;;4949952;28;88621;-35
2023/07/29 07:26:56;;;;;;;8.25;6.05;;;18.80;99.90;;;;;;4946200;28;88602;-34
2023/07/29 07:29:22;;;;;;;7.80;6.57;;;18.80;99.90;;;;;;4950641;28;88685;-33
2023/07/29 07:31:53;;;;;;;8.15;6.22;;;18.90;99.90;;;;;;4957141;28;91899;-34
2023/07/29 07:34:19;;;;;;;11.65;7.20;;;19.00;99.90;;;;;;4957363;28;90159;-38
2023/07/29 07:36:45;;;;;;;8.48;7.15;;;19.00;99.90;;;;;;4957556;28;88452;-36
2023/07/29 07:39:11;;;;;;;12.68;7.05;;;19.20;99.90;;;;;;4948004;28;88445;-39
2023/07/29 07:41:36;;;;;;;8.05;6.88;;;19.20;99.90;;;;;;4937840;28;90777;-34
2023/07/29 07:44:02;;;;;;;9.93;7.65;;;19.20;99.90;;;;;;4937953;28;88403;-38
2023/07/29 07:46:28;;;;;;;9.57;7.78;;;19.10;99.90;;;;;;4938890;28;90352;-33
2023/07/29 07:48:54;;;;;;;9.50;8.52;;;19.20;99.90;;;;;;4938519;28;88234;-37
2023/07/29 07:51:20;;;;;;;8.90;8.00;;;19.30;99.90;;;;;;4942687;28;89699;-32
2023/07/29 07:53:45;;;;;;;9.90;8.60;;;19.30;99.90;;;;;;4957341;28;90156;-34
2023/07/29 07:56:11;;;;;;;9.52;8.50;;;19.40;99.90;;;;;;4955974;28;89799;-38
2023/07/29 07:58:37;;;;;;;9.55;8.60;;;19.60;99.90;;;;;;4952365;28;88938;-32
2023/07/29 08:01:04;;;;;;;8.95;7.75;;;19.80;99.90;;;;;;4960055;28;90448;-39
2023/07/29 08:03:30;;;;;;;7.72;6.97;;;20.00;99.90;;;;;;4963248;28;89864;-33
2023/07/29 08:05:56;;;;;;;8.30;7.50;;;20.00;99.90;;;;;;4952528;28;88574;-33
2023/07/29 08:08:22;;;;;;;8.15;6.68;;;20.10;99.90;;;;;;4940622;28;90043;-32
2023/07/29 08:10:47;;;;;;;12.27;8.27;;;20.00;99.90;;;;;;4989074;22;91066;-35
2023/07/29 08:13:13;;;;;;;6.05;5.45;;;20.00;99.90;;;;;;5005000;27;90488;-35
2023/07/29 08:15:39;;;;;;;9.38;6.65;;;20.20;99.90;;;;;;5016625;27;88646;-38
2023/07/29 08:18:04;;;;;;;6.35;5.68;;;20.10;99.90;;;;;;5015415;27;88832;-36
2023/07/29 08:20:30;;;;;;;7.55;5.80;;;20.00;99.90;;;;;;5019233;27;90347;-39
2023/07/29 08:22:56;;;;;;;5.72;5.22;;;20.20;99.90;;;;;;5012680;27;89880;-33
2023/07/29 08:25:21;;;;;;;4.90;4.47;;;20.20;99.90;;;;;;5032688;27;89015;-33
2023/07/29 08:27:47;;;;;;;4.63;4.22;;;20.20;99.90;;;;;;5013901;27;87614;-37
2023/07/29 08:30:13;;;;;;;4.82;3.92;;;20.10;99.90;;;;;;5015769;27;90548;-37
2023/07/29 08:32:38;;;;;;;6.45;4.60;;;20.00;99.90;;;;;;5000209;27;89846;-34
2023/07/29 08:35:04;;;;;;;9.35;5.15;;;20.00;99.90;;;;;;5018430;27;90109;-35
2023/07/29 08:37:31;;;;;;;5.13;4.40;;;19.90;99.90;;;;;;5025466;27;89535;-32
2023/07/29 08:39:56;;;;;;;6.18;4.85;;;20.10;99.90;;;;;;5018877;27;89982;-35
2023/07/29 08:42:26;;;;;;;5.22;4.03;;;20.20;99.90;;;;;;5019452;27;91255;-37
2023/07/29 08:44:54;;;;;;;6.40;4.50;;;20.60;99.90;;;;;;5016152;27;89382;-37
2023/07/29 08:47:19;;;;;;;6.97;3.92;;;20.80;99.90;;;;;;4998389;27;90245;-33
2023/07/29 08:49:47;;;;;;;6.70;4.90;;;21.20;99.90;;;;;;5004852;27;90066;-36
2023/07/29 08:52:14;;;;;;;6.28;4.47;;;21.30;99.90;;;;;;5008957;27;90267;-33
2023/07/29 08:54:40;;;;;;;5.47;4.20;;;20.80;99.90;;;;;;5001020;27;88468;-36
2023/07/29 08:57:06;;;;;;;5.00;4.60;;;20.60;99.90;;;;;;5000993;27;89703;-33
2023/07/29 08:59:33;;;;;;;4.95;4.47;;;20.60;99.90;;;;;;5000374;27;91428;-35
2023/07/29 09:01:59;;;;;;;5.50;5.00;;;20.60;99.90;;;;;;5026933;27;89358;-37
2023/07/29 09:04:25;;;;;;;4.82;4.43;;;20.50;99.90;;;;;;5012557;27;88022;-33
2023/07/29 09:06:51;;;;;;;5.25;4.85;;;20.80;99.90;;;;;;5000537;27;89814;-35
2023/07/29 09:09:17;;;;;;;5.72;5.22;;;21.20;99.90;;;;;;4998964;27;89996;-34
2023/07/29 09:11:43;;;;;;;4.43;4.13;;;21.40;99.90;;;;;;4999265;27;89678;-39
2023/07/29 09:14:10;;;;;;;6.93;5.40;;;21.50;99.90;;;;;;5004750;27;89663;-32
2023/07/29 09:16:36;;;;;;;4.97;4.53;;;21.80;99.90;;;;;;5000455;27;90012;-33
2023/07/29 09:19:05;;;;;;;6.43;4.35;;;21.80;99.90;;;;;;5000055;27;89909;-37
2023/07/29 09:21:32;;;;;;;6.07;5.10;;;22.10;99.90;;;;;;5000051;27;89266;-35
2023/07/29 09:24:03;;;;;;;4.72;4.25;;;21.80;99.90;;;;;;4999729;27;89217;-36
2023/07/29 09:26:29;;;;;;;8.05;4.90;;;21.70;99.90;;;;;;5003687;27;88426;-33
2023/07/29 09:28:56;;;;;;;3.60;3.40;;;21.60;99.90;;;;;;5015595;27;90187;-33
2023/07/29 09:31:24;;;;;;;3.97;3.55;;;21.80;99.90;;;;;;4998936;27;89434;-36
2023/07/29 09:33:50;;;;;;;4.55;3.72;;;22.10;99.90;;;;;;5004640;27;89037;-32
2023/07/29 09:36:15;;;;;;;9.05;3.45;;;22.10;99.90;;;;;;5018300;27;89487;-35
2023/07/29 09:38:42;;;;;;;4.35;3.42;;;22.30;99.90;;;;;;5001692;27;90175;-36
2023/07/29 09:41:11;;;;;;;3.60;3.00;;;22.40;99.90;;;;;;4999648;27;90016;-34
2023/07/29 09:43:37;;;;;;;3.75;3.47;;;22.80;99.90;;;;;;5000041;27;89180;-35
2023/07/29 09:46:04;;;;;;;3.83;3.05;;;22.40;99.90;;;;;;5011697;27;88684;-38
2023/07/29 09:48:37;;;;;;;4.35;3.15;;;22.20;99.90;;;;;;4999234;27;90386;-36
2023/07/29 09:51:13;;;;;;;5.70;3.10;;;22.20;99.90;;;;;;5000359;27;89704;-34
2023/07/29 09:53:51;;;;;;;3.65;3.35;;;22.00;99.90;;;;;;5003792;27;89603;-35
2023/07/29 09:56:16;;;;;;;3.97;3.17;;;21.70;99.90;;;;;;5013747;27;88896;-32
2023/07/29 09:58:48;;;;;;;7.07;3.50;;;21.70;99.90;;;;;;5000814;27;90458;-32
2023/07/29 10:01:14;;;;;;;3.67;3.13;;;21.80;99.90;;;;;;5015973;27;90739;-37
2023/07/29 10:03:40;;;;;;;3.15;2.88;;;22.00;99.90;;;;;;5023331;27;88983;-37
2023/07/29 10:06:07;;;;;;;9.18;3.03;;;22.20;99.90;;;;;;5026850;27;89460;-33
2023/07/29 10:08:38;;;;;;;3.53;3.22;;;22.40;99.90;;;;;;5020924;27;90588;-36
2023/07/29 10:11:08;;;;;;;6.65;3.38;;;22.50;99.90;;;;;;5026249;27;90899;-35
2023/07/29 10:13:34;;;;;;;2.78;2.58;;;22.40;99.90;;;;;;5020855;27;87644;-32
2023/07/29 10:16:03;;;;;;;3.47;2.63;;;22.10;99.90;;;;;;5017933;27;87581;-33
2023/07/29 10:18:30;;;;;;;3.42;2.97;;;22.10;99.90;;;;;;5017537;27;90761;-34
2023/07/29 10:20:58;;;;;;;6.83;3.30;;;22.10;99.90;;;;;;5018482;27;89595;-35
2023/07/29 10:23:25;;;;;;;6.73;3.27;;;22.20;99.90;;;;;;5018399;27;88246;-35
2023/07/29 10:26:04;;;;;;;3.33;2.90;;;22.30;99.90;;;;;;5029266;27;87702;-34
2023/07/29 10:28:31;;;;;;;3.42;2.38;;;22.40;99.90;;;;;;5005568;27;90147;-36
2023/07/29 10:30:58;;;;;;;4.18;2.97;;;22.60;99.90;;;;;;5009403;27;89382;-38
2023/07/29 10:33:24;;;;;;;2.57;2.40;;;22.60;99.90;;;;;;5007068;27;88941;-36
2023/07/29 10:35:50;;;;;;;3.40;3.08;;;22.40;99.90;;;;;;5002947;27;88363;-34
2023/07/29 10:38:17;;;;;;;3.30;3.00;;;22.60;99.90;;;;;;5005755;27;90334;-37
2023/07/29 10:40:57;;;;;;;6.85;3.08;;;22.60;99.90;;;;;;5011983;27;89307;-37
2023/07/29 10:43:35;;;;;;;3.50;2.80;;;22.60;99.90;;;;;;5028558;27;89404;-37
2023/07/29 10:46:20;;;;;;;2.92;2.72;;;22.80;99.90;;;;;;5004216;27;89907;-35
2023/07/29 10:48:55;;;;;;;5.15;2.90;;;22.50;99.90;;;;;;5017373;27;90594;-36
2023/07/29 10:51:30;;;;;;;3.58;3.08;;;22.60;99.90;;;;;;5017294;27;89857;-32
2023/07/29 10:53:59;;;;;;;3.88;2.75;;;22.40;99.90;;;;;;5016801;27;88123;-33
2023/07/29 10:56:29;;;;;;;4.63;2.88;;;22.50;99.90;;;;;;5006667;27;88564;-36
2023/07/29 10:58:57;;;;;;;3.67;3.38;;;22.60;99.90;;;;;;5002014;27;89081;-32
2023/07/29 11:01:28;;;;;;;2.92;2.72;;;22.60;99.90;;;;;;5022905;27;89825;-33
2023/07/29 11:04:23;;;;;;;2.97;2.67;;;22.50;99.90;;;;;;5023303;27;88824;-35
2023/07/29 11:07:04;;;;;;;3.78;2.90;;;22.70;99.90;;;;;;5022569;27;87629;-34
2023/07/29 11:09:48;;;;;;;5.93;3.50;;;22.40;99.90;;;;;;5028671;27;89646;-35
2023/07/29 11:12:50;;;;;;;3.63;3.03;;;22.40;99.90;;;;;;5017065;27;89160;-34
2023/07/29 11:15:27;;;;;;;3.65;3.35;;;22.10;99.90;;;;;;5017975;27;90400;-37
2023/07/29 11:17:59;;;;;;;7.57;4.13;;;21.90;99.90;;;;;;5018513;27;88193;-36
2023/07/29 11:20:33;;;;;;;3.65;3.35;;;22.10;99.90;;;;;;5018192;27;90556;-34
2023/07/29 11:23:01;;;;;;;5.05;4.35;;;22.00;99.90;;;;;;5021021;27;89510;-35
2023/07/29 11:25:28;;;;;;;4.93;3.90;;;22.00;99.90;;;;;;5029504;27;89343;-38
2023/07/29 11:27:56;;;;;;;4.35;3.95;;;22.10;99.90;;;;;;5004723;27;88862;-33
2023/07/29 11:30:23;;;;;;;4.63;4.22;;;22.10;99.90;;;;;;5016044;27;90139;-34
2023/07/29 11:32:49;;;;;;;5.05;4.65;;;22.10;99.90;;;;;;5011454;27;89586;-34
2023/07/29 11:35:19;;;;;;;4.95;4.38;;;22.30;99.90;;;;;;5010867;27;88745;-38
2023/07/29 11:37:49;;;;;;;5.15;4.65;;;22.10;99.90;;;;;;5015221;27;90337;-37
2023/07/29 11:40:21;;;;;;;4.72;4.32;;;22.20;99.90;;;;;;5013864;27;90017;-34
2023/07/29 11:42:47;;;;;;;4.90;4.53;;;22.10;99.90;;;;;;5009180;27;89312;-38
2023/07/29 11:45:14;;;;;;;4.57;4.03;;;21.90;99.90;;;;;;5013003;27;88599;-37
2023/07/29 11:47:40;;;;;;;4.53;4.22;;;21.80;99.90;;;;;;5007739;27;87937;-36
2023/07/29 11:50:13;;;;;;;5.93;4.75;;;22.00;99.90;;;;;;5016371;27;88824;-32
2023/07/29 11:52:41;;;;;;;4.90;3.80;;;22.10;99.90;;;;;;5008445;27;89636;-36
2023/07/29 11:55:07;;;;;;;4.45;3.72;;;22.20;99.90;;;;;;5016058;27;89752;-37
2023/07/29 11:57:35;;;;;;;4.70;4.20;;;22.50;99.90;;;;;;5016414;27;87719;-37
2023/07/29 12:00:06;;;;;;;5.20;4.15;;;22.50;99.90;;;;;;5016257;27;90094;-36
2023/07/29 12:02:34;;;;;;;5.03;4.53;;;22.70;99.90;;;;;;5019059;27;89364;-35
2023/07/29 12:05:00;;;;;;;;;;;22.60;99.90;;;;;;5038028;27;89264;-33
2023/07/29 12:07:26;;;;;;;5.07;4.43;;;22.40;99.90;;;;;;5034014;27;88166;-38
2023/07/29 12:09:52;;;;;;;8.50;4.72;;;22.20;99.90;;;;;;5032623;27;90605;-36
2023/07/29 12:12:18;;;;;;;4.13;3.40;;;21.80;99.90;;;;;;5024604;27;90251;-34
2023/07/29 12:14:45;;;;;;;4.78;3.58;;;21.90;99.90;;;;;;5027604;27;89836;-38
2023/07/29 12:17:11;;;;;;;3.92;3.58;;;21.90;99.90;;;;;;5025911;27;88863;-36
2023/07/29 12:19:39;;;;;;;4.22;3.22;;;22.10;99.90;;;;;;5027248;27;89930;-34
2023/07/29 12:22:07;;;;;;;3.97;2.75;;;22.10;99.90;;;;;;5025576;27;89628;-34
2023/07/29 12:24:35;;;;;;;7.45;2.97;;;22.30;99.90;;;;;;5026763;27;88804;-34
2023/07/29 12:27:01;;;;;;;3.25;2.85;;;22.40;99.90;;;;;;5026386;27;88320;-34
2023/07/29 12:29:27;;;;;;;2.90;2.70;;;22.30;99.90;;;;;;5029706;27;90082;-36
2023/07/29 12:32:01;;;;;;;3.33;2.60;;;22.50;99.90;;;;;;5033162;27;90072;-32
2023/07/29 12:34:28;;;;;;;3.10;2.55;;;22.40;99.90;;;;;;5036687;27;88218;-35
2023/07/29 12:36:56;;;;;;;3.63;2.70;;;22.60;99.90;;;;;;5033470;27;89051;-35
2023/07/29 12:39:26;;;;;;;4.80;2.80;;;22.60;99.90;;;;;;5035122;27;90274;-36
2023/07/29 12:41:54;;;;;;;4.13;2.80;;;22.70;99.90;;;;;;5035089;27;89693;-33
2023/07/29 12:44:20;;;;;;;2.95;2.70;;;22.80;99.90;;;;;;5035280;27;88793;-34